KLRF Airport (Little Rock Afb) Information

FAA: LRF - ICAO: KLRF

KLRF Airport Location

State Arkansas
County Pulaski
City Jacksonville
KLRF Airport is 1 miles southeast of Jacksonville, AR.
Latitude 34-55-03.0436N
Longitude 092-08-42.0037W
Elevation 311ft

KLRF Airport METARs

METAR KLRF 292356Z AUTO 18003KT 10SM CLR 13/03 A3006 RMK AO2 SLP183 T01250026 10175 20125 55003
Altimeter 30.06"
Temperature 12.5°C (54.5°F)
Wind 180° at 3KT
Clouds Skies are clear.
Visibility 10.0mi
Time observed: 2021-11-29T23:56:00Z

KLRF Airport Details

Status Operational
Activation N/A
Ownership Military - Air Force
Usage Private
Chart MEMPHIS
ATC on-site Yes
Beacon schedule sunset-sunrise
Beacon color clear green

KLRF Airport Contacts

Owner USAF, MAC
Owner address LITTLE ROCK AFB, JACKSONVILLE, AR 72076
Owner phone N/A
Manager CHARLES COGER
Manager address PO BOX 844, HUNTSVILLE, AR 72740
Manager phone 479-738-7287

KLRF Airport (Little Rock Afb) Radio Frequencies

KLRF (Airport) Radio Frequencies

UNICOM N/A
Common traffic advisory frequency (CTAF) N/A